Granbury, Texas
Current Conditions -  °F | °C
As of 3:35 PM on Wednesday 26 Nov 2014 (Local Time) from KGDJ Reporting Station
Clear Clear  
Wind Chill: 65°   Ceiling: Unl
Heat Index: 65°   Visibility: 10mi
Dew Point: 34°   Wind: 10mph
Humidity: 31%   Direction: 330°NNW
Pressure: 30.22"   Gusts: NA
Location:  32.44°N, 97.79°W
Report Text: KGDJ 262135Z AUTO 33009KT 10SM CLR 19/01 A3022 RMK AO2 T01850010
Loading
Personal Weather Stations






























Interactive Weather Map New forecast layout! Learn more

10-Day Weather Forecast

Advertisements
Track Severe Weather on mobile